Etusivu
METAR-TAF:

METAR-TAF

Lentoasemat :

Wonderboom Airport

Pretoria, Etelä-Afrikka

Leveyspiiri: 25-39S, Pituuspiiri: 028-13E, korkeus merenpinnasta: 1248 m

Tämänhetkinen sää

Tämä raportti tehtiin 52 minuuttia sitten, kello 05.00 UTC
Tuuli 1 kn idästä/kaakosta
Lämpötila 3°C
Kosteus 70%
Ilmanpaine 1022 hPa
Näkyvyys 10 km tai enemmän
ei pilviä alle 1500 m:ssä eikä cumulonimbus-pilviä

METAR: FAWB 190500Z 12001KT CAVOK 03/M02 Q1022

Aika: 07:52 (05:52 UTC)

Sääennuste

Tämä raportti tehtiin 2 tuntia ja 52 minuuttia sitten, kello 03.00 UTC
Ennuste voimassa 19. päivästä klo 04 UTC - 19. päivään klo 15 UTC
Tuuli 3 kn eri suunnista
Näkyvyys 10 km tai enemmän
ei pilviä alle 1500 m:ssä eikä cumulonimbus-pilviä
Tulossa
19. päivästä klo 09 UTC - 19. päivään klo 11 UTC
Tuuli 10 kn luoteesta

TAF: FAWB 190300Z 1904/1915 VRB03KT CAVOK TX26/1912Z TN04/1905Z BECMG 1909/1911 32010KT

Säähavainnot ja -ennusteet yli 4000 lentoasemalta (METAR- ja TAF-raportit).

Käytössä olevat sääasemat on merkitty karttaan keltaisilla ja punaisilla pisteillä.

Aseta hiiri pisteen päälle nähdäksesi sääaseman nimen.

Klikkaa sitten nähdäksesi säähavainnot ja -ennusteet.

Kartan vaihtaminen: klikkaa mustalla rastilla varustettuja vihreitä pisteitä, niin voit zoomata sisään; viivalla varustettua vihreää pistettä, niin voit zoomata ulos tai vihreitä nuolia, niin pääset viereisille kartoille.


METAR-TAF: